Lexington, KY

11:45 AM EST on March 05, 2015 (GMT -0500)
Richmond | Change Station
CLOSE
Current Station
Airport
Location: Richmond,
Elevation: 1001 ft
Nearby Weather Stations

Elev 1001 ft 37.63 °N, 84.33 °W | Updated 50 minutes ago

Snow
Snow
18 °F
Feels Like 8 °F
N
7
Wind Variable Wind from North

Today
High -- | Low -- °F
--% Chance of Precip.
Yesterday
High -- | Low -- °F
Precip. -- in
7:04 AM 6:35 PM
Full, 100% visible
Pressure 30.31 in
Visibility 1.5 miles
Clouds Scattered Clouds 1200 ft
Mostly Cloudy 1800 ft
Overcast 2400 ft
Windchill 8 °F
Dew Point 14 °F
Humidity 86%
Rainfall 0.00 in
Snow Depth Not available.
UV 2 out of 12
Pollen .70 out of 12
Air Quality Not available.
Flu Activity Not available.
METAR KI39 051555Z AUTO 01006KT 1 1/2SM SCT012 BKN018 OVC024 M08/M10 A3031 RMK AO2

More Conditions Fewer Conditions

Pressure 30.31 in
Visibility 1.5 miles
Clouds Scattered Clouds 1200 ft
Mostly Cloudy 1800 ft
Overcast 2400 ft
Windchill 8 °F
Dew Point 14 °F
Humidity 86%
Rainfall 0.00 in
Snow Depth Not available.
UV 2 out of 12
Pollen .70 out of 12
Air Quality Not available.
Flu Activity Not available.
METAR KI39 051555Z AUTO 01006KT 1 1/2SM SCT012 BKN018 OVC024 M08/M10 A3031 RMK AO2

More Conditions Fewer Conditions

10-Day Weather Forecast

Almanac

Astronomy

Mar. 05, 2015 Rise Set
Actual Time
Civil Twilight
Nautical Twilight
Astronomical Twilight
Moon
Length of Visible Light
Length of Day
Tomorrow will be .
, % of the Moon is Illuminated

Today's Extremes

State Highs State Lows

Community

WunderPhotos

Upload Photos

1,802,851 photos uploaded!

WunderBlogs® & News

Nearby

Air Quality

  Air Quality AQ Index Pollutant
Not available.

Snow Depth

Station Depth Elevation

Earthquake Activity

City Distance Mag. Time & Date
Minimum magnitude displayed is 2.5.

Coastal Water Temperatures

Place Temperature

Nearby Weather Stations

Winter Storm Warning
Statement as of 8:15 AM CST on March 05, 2015

... Winter Storm Warning remains in effect until 1 PM EST /noon
CST/ this afternoon...

A Winter Storm Warning remains in effect until 1 PM EST /noon
CST/ this afternoon.

* Timing: moderate snow will slowly taper off through the morning
hours.

* Accumulations: an additional 1 to 2 inches of snow is possible.

* Main impact: plan on snow covered roads and dangerous to near
impossible travel conditions.

* Other impacts: the weight of the snow could result in scattered
power outages and downed tree limbs. Flat roof structures have a
potential for collapse... especially in areas where greater than
a foot of snow has fallen.

Precautionary/preparedness actions...

Travel will be treacherous with some roads nearly impassable.
Have an emergency kit of blankets... food... water and flashlights
if you must travel.